Time;durP1;ratioP1;P1;durP2;ratioP2;P2;SDS_P1;SDS_P2;PMS_P1;PMS_P2;Temp;Humidity;BMP_temperature;BMP_pressure;BME280_temperature;BME280_humidity;BME280_pressure;Samples;Min_cycle;Max_cycle;Signal;HPM_P1;HPM_P2
2023/05/25 00:01:16;;;;;;;7.28;5.03;;;;;;;21.64;70.39;100680.31;4981176;28;20046;-79
2023/05/25 00:03:44;;;;;;;7.78;5.07;;;;;;;21.75;70.78;100672.28;4980772;28;20054;-79
2023/05/25 00:06:14;;;;;;;6.85;4.80;;;;;;;21.61;70.58;100678.25;4996241;28;20389;-79
2023/05/25 00:08:42;;;;;;;6.05;4.35;;;;;;;21.68;70.60;100670.09;4996962;28;20053;-79
2023/05/25 00:11:10;;;;;;;5.40;4.70;;;;;;;21.67;71.97;100678.78;4980722;28;20050;-79
2023/05/25 00:13:38;;;;;;;5.85;4.75;;;;;;;21.53;74.12;100674.44;4981723;28;20508;-80
2023/05/25 00:16:06;;;;;;;5.78;4.60;;;;;;;21.61;74.67;100667.13;4981203;28;20056;-79
2023/05/25 00:18:36;;;;;;;5.82;4.53;;;;;;;21.50;76.64;100671.56;4980825;28;20397;-80
2023/05/25 00:21:05;;;;;;;5.05;4.40;;;;;;;21.50;76.04;100674.34;4980372;28;20057;-79
2023/05/25 00:23:33;;;;;;;5.78;4.72;;;;;;;21.38;75.83;100669.59;4981051;28;20061;-79
2023/05/25 00:26:02;;;;;;;6.30;4.75;;;;;;;21.30;76.69;100682.50;4981181;28;20042;-79
2023/05/25 00:28:30;;;;;;;6.30;4.35;;;;;;;21.34;75.76;100683.41;4980876;28;20048;-79
2023/05/25 00:30:58;;;;;;;4.88;3.97;;;;;;;21.57;76.02;100691.25;4996405;28;20050;-79
2023/05/25 00:33:26;;;;;;;7.45;4.60;;;;;;;21.67;74.43;100696.31;4995571;28;20049;-79
2023/05/25 00:35:55;;;;;;;15.23;5.35;;;;;;;21.80;74.07;100693.53;5013814;28;20049;-79
2023/05/25 00:38:24;;;;;;;6.15;4.60;;;;;;;21.76;73.02;100701.78;5013831;28;20481;-79
2023/05/25 00:40:56;;;;;;;6.07;4.78;;;;;;;21.84;72.82;100713.91;5021581;28;20052;-79
2023/05/25 00:43:24;;;;;;;6.65;4.70;;;;;;;22.00;72.11;100720.34;5053074;28;20060;-79
2023/05/25 00:45:53;;;;;;;7.57;4.53;;;;;;;22.00;72.33;100723.13;5052523;28;20037;-79
2023/05/25 00:48:21;;;;;;;5.57;4.75;;;;;;;21.99;72.33;100734.63;5035707;28;20037;-79
2023/05/25 00:50:53;;;;;;;6.68;4.03;;;;;;;21.99;72.15;100746.59;5035438;28;20051;-79
2023/05/25 00:53:21;;;;;;;7.28;5.45;;;;;;;22.02;73.17;100756.22;5053067;28;20048;-78
2023/05/25 00:56:19;;;;;;;6.97;4.97;;;;;;;22.32;72.32;100757.81;5053425;28;20057;-79
2023/05/25 00:58:52;;;;;;;8.10;5.75;;;;;;;21.98;74.75;100758.91;5053145;28;20060;-79
2023/05/25 01:01:23;;;;;;;8.47;5.10;;;;;;;21.83;74.60;100762.44;5035323;28;20048;-79
2023/05/25 01:03:54;;;;;;;7.32;6.22;;;;;;;21.71;75.67;100761.31;5051638;28;20048;-79
2023/05/25 01:06:26;;;;;;;7.90;5.78;;;;;;;21.89;75.24;100755.44;5052984;28;20399;-79
2023/05/25 01:08:59;;;;;;;7.07;5.50;;;;;;;21.62;77.26;100755.06;5052922;28;20045;-79
2023/05/25 01:11:32;;;;;;;7.80;5.05;;;;;;;21.26;78.19;100776.22;5052890;28;20037;-78
2023/05/25 01:14:00;;;;;;;9.57;6.30;;;;;;;21.04;78.59;100783.84;5034783;28;20041;-79
2023/05/25 01:16:29;;;;;;;12.45;5.70;;;;;;;21.12;82.25;100776.56;5051941;28;20041;-79
2023/05/25 01:18:57;;;;;;;9.32;5.68;;;;;;;20.93;85.43;100778.72;5024678;28;20496;-79
2023/05/25 01:21:55;;;;;;;9.02;5.93;;;;;;;21.13;84.24;100770.66;5014586;28;20061;-80
2023/05/25 01:24:39;;;;;;;9.82;5.72;;;;;;;21.01;92.07;100784.56;5016448;28;20057;-80
2023/05/25 01:27:27;;;;;;;7.50;5.68;;;;;;;21.08;89.89;100790.34;5015287;28;20048;-80
2023/05/25 01:29:58;;;;;;;11.57;6.10;;;;;;;21.25;89.87;100805.22;5031632;28;20510;-80
2023/05/25 01:32:27;;;;;;;7.53;5.30;;;;;;;21.21;90.64;100797.53;5037512;28;20041;-80
2023/05/25 01:34:57;;;;;;;11.15;6.45;;;;;;;21.26;90.99;100779.78;5035646;28;20048;-80
2023/05/25 01:37:26;;;;;;;9.98;6.03;;;;;;;21.07;92.99;100788.75;5035109;28;20052;-80
2023/05/25 01:39:56;;;;;;;9.43;5.85;;;;;;;20.96;92.63;100790.34;5052629;28;20037;-80
2023/05/25 01:42:24;;;;;;;11.05;6.05;;;;;;;20.68;96.67;100777.88;5052109;28;20057;-80
2023/05/25 01:44:52;;;;;;;8.82;5.70;;;;;;;20.68;95.07;100783.44;5051319;28;20045;-80
2023/05/25 01:47:56;;;;;;;9.82;6.82;;;;;;;20.72;95.28;100805.81;5052364;28;20041;-80
2023/05/25 01:50:46;;;;;;;9.02;6.35;;;;;;;20.91;94.32;100811.66;5026843;28;20057;-81
2023/05/25 01:53:37;;;;;;;13.15;7.88;;;;;;;20.79;94.31;100800.47;5051851;28;20380;-80
2023/05/25 01:56:08;;;;;;;7.70;5.80;;;;;;;20.76;93.19;100817.84;5034302;28;20045;-80
2023/05/25 01:58:43;;;;;;;8.88;6.05;;;;;;;20.93;93.51;100809.34;5052390;28;20396;-81
2023/05/25 02:01:15;;;;;;;8.25;5.53;;;;;;;21.23;91.19;100811.13;5034889;28;20049;-81
2023/05/25 02:03:47;;;;;;;11.18;5.90;;;;;;;21.04;92.88;100808.88;5034042;28;20044;-81
2023/05/25 02:06:16;;;;;;;9.80;6.60;;;;;;;20.82;94.92;100802.56;5034302;28;20048;-80
2023/05/25 02:08:44;;;;;;;11.82;6.82;;;;;;;20.66;95.99;100792.13;5050884;28;20052;-80
2023/05/25 02:11:13;;;;;;;10.05;6.78;;;;;;;20.78;95.65;100787.75;5052500;28;20380;-81
2023/05/25 02:13:41;;;;;;;11.52;6.35;;;;;;;20.60;96.66;100778.78;5051991;28;20051;-82
2023/05/25 02:16:10;;;;;;;10.48;6.70;;;;;;;20.78;95.55;100784.97;5052283;28;20049;-82
2023/05/25 02:18:44;;;;;;;11.35;7.22;;;;;;;20.40;96.73;100782.06;5034537;28;20041;-81
2023/05/25 02:21:12;;;;;;;8.52;6.47;;;;;;;20.40;96.64;100786.84;5052181;28;20056;-81
2023/05/25 02:23:40;;;;;;;9.85;6.13;;;;;;;20.52;95.80;100786.88;5051786;28;20500;-81
2023/05/25 02:26:08;;;;;;;8.88;6.38;;;;;;;20.54;97.65;100789.31;5052449;28;20052;-81
2023/05/25 02:28:37;;;;;;;8.75;6.32;;;;;;;20.55;97.82;100790.94;5038451;28;20049;-80
2023/05/25 02:31:06;;;;;;;6.18;5.57;;;;;;;20.43;97.59;100793.69;5055898;28;20056;-80
2023/05/25 02:33:34;;;;;;;13.45;6.55;;;;;;;20.19;99.43;100806.31;5055893;28;20045;-80
2023/05/25 02:36:04;;;;;;;8.00;5.90;;;;;;;20.18;97.65;100804.69;5056231;28;20045;-80
2023/05/25 02:38:32;;;;;;;8.15;6.15;;;;;;;20.21;98.81;100807.59;5038317;28;20033;-80
2023/05/25 02:41:00;;;;;;;7.68;5.57;;;;;;;20.25;97.86;100802.19;5055716;28;20399;-80
2023/05/25 02:43:28;;;;;;;6.93;5.93;;;;;;;20.37;96.52;100806.97;5037859;28;20048;-80
2023/05/25 02:45:56;;;;;;;8.65;5.68;;;;;;;20.41;96.34;100792.06;5037924;28;20049;-80
2023/05/25 02:48:24;;;;;;;9.05;4.97;;;;;;;20.27;97.39;100795.13;5055639;28;20049;-80
2023/05/25 02:50:52;;;;;;;8.55;5.53;;;;;;;20.38;95.10;100792.72;5037847;28;20482;-80
2023/05/25 02:53:20;;;;;;;8.35;5.00;;;;;;;19.94;97.71;100778.41;5053383;28;20041;-80
2023/05/25 02:55:48;;;;;;;7.50;5.03;;;;;;;19.73;99.53;100779.19;5037649;28;20488;-79
2023/05/25 02:58:19;;;;;;;7.47;5.00;;;;;;;19.43;100.00;100776.44;5020456;28;20048;-80
2023/05/25 03:01:09;;;;;;;6.30;5.28;;;;;;;19.36;100.00;100765.06;5044422;28;20407;-79
2023/05/25 03:03:43;;;;;;;7.45;5.80;;;;;;;19.13;100.00;100770.91;5037066;28;20052;-79
2023/05/25 03:06:13;;;;;;;6.18;4.38;;;;;;;19.00;100.00;100776.31;5037425;28;20045;-79
2023/05/25 03:08:41;;;;;;;6.88;4.50;;;;;;;18.91;100.00;100773.59;5055155;28;20435;-79
2023/05/25 03:11:09;;;;;;;4.78;4.28;;;;;;;19.18;100.00;100779.03;5037409;28;20044;-79
2023/05/25 03:13:37;;;;;;;6.05;4.47;;;;;;;19.16;100.00;100775.81;5053531;28;20051;-79
2023/05/25 03:16:05;;;;;;;5.95;4.53;;;;;;;19.13;100.00;100779.22;5037309;28;20060;-79
2023/05/25 03:18:35;;;;;;;4.88;4.00;;;;;;;19.02;100.00;100787.88;5037210;28;20400;-79
2023/05/25 03:21:03;;;;;;;6.68;4.13;;;;;;;18.86;100.00;100789.59;5037369;28;20045;-78
2023/05/25 03:23:31;;;;;;;5.13;4.63;;;;;;;18.90;98.25;100802.47;5054645;28;20053;-78
2023/05/25 03:25:58;;;;;;;5.68;4.10;;;;;;;18.87;96.93;100805.88;5053684;28;20041;-78
2023/05/25 03:28:26;;;;;;;4.00;3.60;;;;;;;18.87;95.60;100814.19;5033856;28;20049;-78
2023/05/25 03:30:55;;;;;;;7.20;4.10;;;;;;;18.76;96.80;100816.53;5017284;28;20049;-77
2023/05/25 03:33:23;;;;;;;6.45;4.13;;;;;;;18.90;97.93;100821.88;5040716;28;20052;-77
2023/05/25 03:35:51;;;;;;;4.45;3.75;;;;;;;18.91;99.93;100817.94;5053526;28;20534;-78
2023/05/25 03:38:19;;;;;;;5.57;4.07;;;;;;;18.92;99.20;100829.88;5053986;28;20515;-78
2023/05/25 03:40:47;;;;;;;5.28;4.40;;;;;;;19.03;99.92;100831.16;5036406;28;20052;-78
2023/05/25 03:43:15;;;;;;;6.60;4.13;;;;;;;19.01;99.43;100833.41;5054255;28;20041;-77
2023/05/25 03:45:46;;;;;;;4.80;4.20;;;;;;;19.01;99.05;100833.41;5017069;28;20041;-78
2023/05/25 03:48:15;;;;;;;5.70;4.78;;;;;;;19.18;97.98;100843.66;5034464;28;20369;-78
2023/05/25 03:50:43;;;;;;;5.60;4.13;;;;;;;19.06;100.00;100849.91;5016865;28;20481;-78
2023/05/25 03:53:13;;;;;;;5.78;4.47;;;;;;;19.18;100.00;100842.84;5045432;28;20052;-77
2023/05/25 03:55:41;;;;;;;4.97;4.40;;;;;;;19.28;100.00;100848.03;5053266;28;20041;-78
2023/05/25 03:58:11;;;;;;;6.10;4.68;;;;;;;19.22;100.00;100843.81;5053278;28;20049;-78
2023/05/25 04:00:41;;;;;;;5.32;4.40;;;;;;;19.15;100.00;100852.63;5054267;28;20041;-78
2023/05/25 04:03:09;;;;;;;5.80;4.57;;;;;;;19.23;100.00;100855.72;5053680;28;20041;-79
2023/05/25 04:05:37;;;;;;;6.25;4.95;;;;;;;19.28;100.00;100863.84;5053826;28;20037;-79
2023/05/25 04:08:05;;;;;;;7.20;5.00;;;;;;;19.54;100.00;100866.50;5054187;28;20041;-79
2023/05/25 04:10:34;;;;;;;7.07;4.68;;;;;;;19.68;100.00;100865.44;5036822;28;20063;-79
2023/05/25 04:13:02;;;;;;;5.18;4.35;;;;;;;19.73;100.00;100868.88;5035878;28;20063;-79
2023/05/25 04:15:33;;;;;;;5.07;4.40;;;;;;;19.84;99.67;100880.38;5053775;28;20048;-80
2023/05/25 04:18:06;;;;;;;8.20;5.05;;;;;;;20.01;98.39;100885.03;5036268;28;20049;-80
2023/05/25 04:20:34;;;;;;;8.05;4.78;;;;;;;20.03;97.67;100881.13;5036175;28;20045;-80
2023/05/25 04:23:03;;;;;;;9.88;4.70;;;;;;;20.00;96.97;100882.63;5035388;28;20338;-80
2023/05/25 04:25:32;;;;;;;18.98;4.53;;;;;;;20.00;96.73;100888.16;5036247;28;20501;-80
2023/05/25 04:28:00;;;;;;;7.22;4.90;;;;;;;20.02;97.24;100880.31;5053960;28;20496;-79
2023/05/25 04:30:43;;;;;;;8.32;3.92;;;;;;;20.16;95.29;100882.81;5035559;28;20049;-79
2023/05/25 04:33:28;;;;;;;5.38;4.20;;;;;;;20.07;93.97;100884.84;5034575;28;20049;-79
2023/05/25 04:36:02;;;;;;;4.93;3.83;;;;;;;20.03;94.74;100881.13;5052792;28;20053;-79
2023/05/25 04:38:32;;;;;;;4.40;4.00;;;;;;;20.27;93.51;100883.22;5035288;28;20514;-78
2023/05/25 04:41:02;;;;;;;4.68;4.15;;;;;;;20.10;94.61;100879.41;5035390;28;20041;-79
2023/05/25 04:43:31;;;;;;;6.45;3.67;;;;;;;19.93;96.02;100885.06;5031131;28;20041;-78
2023/05/25 04:46:01;;;;;;;6.70;4.03;;;;;;;19.92;95.80;100886.22;5015792;28;20053;-80
2023/05/25 04:48:33;;;;;;;5.20;3.75;;;;;;;20.13;93.46;100884.31;4999142;28;20056;-80
2023/05/25 04:51:03;;;;;;;6.28;3.60;;;;;;;20.07;94.17;100885.66;5034493;28;20052;-79
2023/05/25 04:53:34;;;;;;;9.00;3.50;;;;;;;20.11;93.12;100881.06;5035061;28;20483;-79
2023/05/25 04:56:03;;;;;;;3.50;3.05;;;;;;;20.03;91.28;100890.25;5034234;28;20056;-78
2023/05/25 04:58:32;;;;;;;3.80;3.33;;;;;;;20.13;92.15;100887.09;5035165;28;20507;-79
2023/05/25 05:01:00;;;;;;;3.28;2.95;;;;;;;20.27;91.07;100894.34;5026924;28;20072;-77
2023/05/25 05:03:28;;;;;;;5.38;3.42;;;;;;;20.09;91.20;100888.09;5026747;28;20059;-78
2023/05/25 05:05:56;;;;;;;4.07;3.45;;;;;;;20.10;92.14;100904.41;5043398;28;20059;-79
2023/05/25 05:08:27;;;;;;;4.50;3.38;;;;;;;20.10;91.74;100901.63;5048241;28;20060;-79
2023/05/25 05:10:55;;;;;;;3.85;3.10;;;;;;;19.97;91.18;100911.06;5036540;28;20041;-79
2023/05/25 05:13:25;;;;;;;6.82;2.97;;;;;;;19.81;91.58;100914.41;5034910;28;20395;-79
2023/05/25 05:15:53;;;;;;;4.50;3.15;;;;;;;19.84;92.93;100919.25;5027475;28;20041;-79
2023/05/25 05:18:21;;;;;;;4.95;3.38;;;;;;;20.03;93.91;100920.81;5033511;28;20052;-79
2023/05/25 05:20:49;;;;;;;4.60;3.60;;;;;;;20.03;96.29;100920.81;5052556;28;20056;-79
2023/05/25 05:23:17;;;;;;;4.35;3.10;;;;;;;20.00;97.87;100927.06;5033218;28;20041;-79
2023/05/25 05:25:45;;;;;;;3.90;3.08;;;;;;;20.04;97.21;100930.78;5051082;28;20049;-79
2023/05/25 05:28:14;;;;;;;6.03;3.67;;;;;;;20.25;96.74;100946.66;5030431;28;20045;-78
2023/05/25 05:30:46;;;;;;;4.50;3.78;;;;;;;20.26;95.91;100949.13;5051227;28;20399;-78
2023/05/25 05:33:14;;;;;;;5.53;3.80;;;;;;;20.39;95.07;100952.75;5052218;28;20049;-79
2023/05/25 05:35:47;;;;;;;6.28;3.97;;;;;;;20.56;93.15;100961.34;5034381;28;20052;-78
2023/05/25 05:38:20;;;;;;;5.15;4.65;;;;;;;20.59;91.80;100958.69;5021413;28;20064;-78
2023/05/25 05:40:48;;;;;;;4.45;4.03;;;;;;;20.59;92.21;100964.25;5014823;28;20065;-79
2023/05/25 05:43:20;;;;;;;6.10;4.45;;;;;;;20.59;93.68;100961.47;5030667;28;20052;-78
2023/05/25 05:45:48;;;;;;;6.68;4.68;;;;;;;20.66;92.88;100964.50;5052390;28;20484;-78
2023/05/25 05:48:16;;;;;;;5.72;4.85;;;;;;;20.60;95.70;100960.31;5050856;28;20045;-78
2023/05/25 05:50:44;;;;;;;5.95;4.60;;;;;;;20.72;94.29;100958.75;5034666;28;20041;-78
2023/05/25 05:53:13;;;;;;;5.80;4.63;;;;;;;20.76;91.08;100970.78;5052026;28;20045;-78
2023/05/25 05:55:41;;;;;;;5.93;4.97;;;;;;;20.68;90.77;100958.63;5034274;28;20506;-78
2023/05/25 05:58:09;;;;;;;6.78;5.18;;;;;;;20.86;91.12;100972.41;5034323;28;20041;-79
2023/05/25 06:00:37;;;;;;;6.60;4.97;;;;;;;20.80;91.08;100967.00;5034119;28;20048;-78
2023/05/25 06:03:06;;;;;;;7.88;5.10;;;;;;;20.78;91.33;100976.84;5040234;28;20392;-78
2023/05/25 06:05:34;;;;;;;5.97;4.78;;;;;;;20.77;91.00;100975.22;5040647;28;20038;-78
2023/05/25 06:08:02;;;;;;;5.75;4.45;;;;;;;20.80;91.17;100977.31;5040630;28;20499;-78
2023/05/25 06:10:35;;;;;;;6.20;4.50;;;;;;;20.76;87.12;100993.88;5040626;28;20055;-79
2023/05/25 06:13:03;;;;;;;5.97;4.95;;;;;;;20.56;91.19;100995.50;5040619;28;20052;-78
2023/05/25 06:15:31;;;;;;;6.95;4.78;;;;;;;20.78;89.97;100999.91;5040500;28;20044;-78
2023/05/25 06:18:00;;;;;;;5.60;4.30;;;;;;;20.76;88.06;101005.00;5040572;28;20056;-78
2023/05/25 06:20:30;;;;;;;6.40;4.60;;;;;;;20.93;87.37;101009.63;5040439;28;20044;-78
2023/05/25 06:22:59;;;;;;;4.80;4.30;;;;;;;20.83;87.38;101004.47;5040496;28;20045;-78
2023/05/25 06:25:27;;;;;;;5.07;3.95;;;;;;;20.87;86.80;101001.84;5040534;28;20049;-79
2023/05/25 06:27:56;;;;;;;6.88;4.15;;;;;;;20.79;87.44;101017.41;5040439;28;20056;-79
2023/05/25 06:30:24;;;;;;;7.05;4.45;;;;;;;20.96;85.59;101010.09;5058256;28;20041;-78
2023/05/25 06:32:52;;;;;;;5.30;4.40;;;;;;;20.98;86.21;101018.91;5040224;28;20056;-78
2023/05/25 06:35:20;;;;;;;4.88;4.03;;;;;;;20.92;85.10;101009.97;5023981;28;20044;-78
2023/05/25 06:37:50;;;;;;;6.32;4.13;;;;;;;20.85;84.50;101004.94;5057364;28;20037;-78
2023/05/25 06:40:20;;;;;;;6.07;4.43;;;;;;;21.07;85.07;101017.69;5040455;28;20048;-79
2023/05/25 06:42:48;;;;;;;4.63;4.05;;;;;;;21.11;83.39;101022.56;5058031;28;20049;-79
2023/05/25 06:45:35;;;;;;;5.15;4.20;;;;;;;21.10;82.92;101027.31;5058198;28;20500;-78
2023/05/25 06:48:03;;;;;;;6.43;3.58;;;;;;;21.15;82.87;101023.50;5040233;28;20049;-78
2023/05/25 06:50:31;;;;;;;5.82;4.03;;;;;;;21.21;81.79;101045.22;5040214;28;20407;-78
2023/05/25 06:52:59;;;;;;;5.43;4.03;;;;;;;21.12;82.36;101038.91;5039946;28;20048;-79
2023/05/25 06:55:27;;;;;;;5.95;4.05;;;;;;;21.24;81.81;101037.31;5058132;28;20056;-79
2023/05/25 06:57:55;;;;;;;4.57;4.00;;;;;;;21.28;81.79;101038.28;5057973;28;20052;-79
2023/05/25 07:00:23;;;;;;;5.40;3.95;;;;;;;21.30;82.76;101041.53;5057862;28;20048;-78
2023/05/25 07:02:51;;;;;;;5.78;4.32;;;;;;;21.27;81.80;101036.66;5058053;28;20052;-78
2023/05/25 07:05:18;;;;;;;4.93;3.75;;;;;;;21.28;80.92;101039.09;5058056;28;20040;-78
2023/05/25 07:07:46;;;;;;;4.97;4.20;;;;;;;21.47;80.54;101043.34;5056601;28;20060;-79
2023/05/25 07:10:14;;;;;;;5.78;3.67;;;;;;;21.37;80.74;101052.94;5057885;28;20056;-79
2023/05/25 07:12:43;;;;;;;5.72;4.03;;;;;;;21.57;80.41;101033.72;5055379;28;20514;-78
2023/05/25 07:15:12;;;;;;;5.03;4.20;;;;;;;21.64;79.01;101045.09;5054224;28;20049;-79
2023/05/25 07:17:40;;;;;;;4.30;3.90;;;;;;;21.85;79.08;101044.25;5053406;28;20052;-79
2023/05/25 07:20:09;;;;;;;4.93;3.97;;;;;;;21.92;79.16;101044.50;5054645;28;20041;-79
2023/05/25 07:22:37;;;;;;;4.57;3.92;;;;;;;21.92;77.57;101038.09;5054653;28;20052;-79
2023/05/25 07:25:05;;;;;;;5.25;4.15;;;;;;;22.20;77.83;101037.41;5054447;28;20044;-79
2023/05/25 07:27:34;;;;;;;5.03;3.70;;;;;;;22.28;77.29;101045.66;5054608;28;20048;-79
2023/05/25 07:30:03;;;;;;;4.68;4.22;;;;;;;22.23;75.30;101051.47;5036449;28;20045;-79
2023/05/25 07:32:31;;;;;;;4.25;3.83;;;;;;;22.25;74.57;101053.91;5054542;28;20045;-79
2023/05/25 07:35:00;;;;;;;7.93;4.20;;;;;;;21.91;76.15;101058.75;5054105;28;20041;-79
2023/05/25 07:37:28;;;;;;;5.00;3.78;;;;;;;22.13;76.37;101068.66;5054302;28;20045;-79
2023/05/25 07:39:55;;;;;;;4.50;3.40;;;;;;;22.01;74.71;101064.69;5036429;28;20060;-79
2023/05/25 07:42:23;;;;;;;4.43;3.58;;;;;;;21.97;74.78;101077.72;5054118;28;20087;-79
2023/05/25 07:44:51;;;;;;;4.35;3.65;;;;;;;21.96;76.13;101075.25;5054216;28;20045;-78
2023/05/25 07:47:19;;;;;;;4.28;3.53;;;;;;;22.00;76.04;101074.22;5054104;28;20056;-79
2023/05/25 07:49:47;;;;;;;4.22;3.35;;;;;;;22.18;75.55;101078.78;5035545;28;20447;-78
2023/05/25 07:52:15;;;;;;;5.80;4.05;;;;;;;22.25;74.78;101093.75;5054062;28;20048;-79
2023/05/25 07:54:44;;;;;;;5.03;4.28;;;;;;;22.06;75.63;101082.34;5035385;28;20049;-78
2023/05/25 07:57:12;;;;;;;3.83;3.45;;;;;;;22.13;76.63;101088.16;5053897;28;20049;-78
2023/05/25 07:59:40;;;;;;;4.47;3.80;;;;;;;22.33;75.37;101089.22;5053887;28;20550;-78
2023/05/25 08:02:08;;;;;;;5.07;3.80;;;;;;;22.53;74.82;101092.28;5053974;28;20071;-78
2023/05/25 08:04:36;;;;;;;4.57;4.18;;;;;;;22.43;76.66;101093.50;5053829;28;20052;-79
2023/05/25 08:07:04;;;;;;;5.00;4.13;;;;;;;21.99;75.98;101100.47;5053960;28;20053;-77
2023/05/25 08:09:32;;;;;;;7.40;4.20;;;;;;;22.07;76.85;101083.97;5053651;28;20052;-78
2023/05/25 08:12:00;;;;;;;5.45;4.50;;;;;;;22.04;76.43;101087.47;5053759;28;20049;-79
2023/05/25 08:14:50;;;;;;;7.15;4.88;;;;;;;22.32;75.73;101090.38;5053462;28;20483;-78
2023/05/25 08:17:19;;;;;;;10.32;6.25;;;;;;;22.53;74.38;101095.88;5053562;28;20041;-79
2023/05/25 08:19:47;;;;;;;11.93;6.70;;;;;;;22.42;73.82;101095.50;5035883;28;20040;-79
2023/05/25 08:22:15;;;;;;;7.63;5.32;;;;;;;22.34;73.22;101101.19;5035700;28;20044;-78
2023/05/25 08:24:43;;;;;;;8.55;5.00;;;;;;;22.13;74.56;101099.31;5053354;28;20237;-79
2023/05/25 08:27:11;;;;;;;5.22;3.97;;;;;;;22.34;74.94;101103.97;5053596;28;20049;-78
2023/05/25 08:29:40;;;;;;;6.25;4.30;;;;;;;22.08;75.11;101108.72;5053226;28;20056;-78
2023/05/25 08:32:07;;;;;;;5.57;3.90;;;;;;;21.92;75.23;101105.78;5053247;28;20048;-78
2023/05/25 08:34:35;;;;;;;4.18;3.47;;;;;;;22.17;72.71;101103.03;5053084;28;20056;-79
2023/05/25 08:37:03;;;;;;;4.55;3.85;;;;;;;21.91;74.11;101120.06;5035103;28;20057;-78
2023/05/25 08:39:31;;;;;;;6.80;4.35;;;;;;;22.07;74.01;101121.03;5053155;28;20045;-78
2023/05/25 08:42:02;;;;;;;4.53;4.07;;;;;;;22.22;72.72;101124.28;5031612;28;20049;-79
2023/05/25 08:44:31;;;;;;;6.13;4.15;;;;;;;22.09;74.80;101120.69;5033274;28;20045;-79
2023/05/25 08:47:05;;;;;;;7.68;4.07;;;;;;;22.03;75.26;101134.00;5033221;28;20053;-79
2023/05/25 08:49:38;;;;;;;4.63;4.10;;;;;;;22.12;74.95;101131.13;5033164;28;20046;-79
2023/05/25 08:52:16;;;;;;;4.63;4.13;;;;;;;22.32;74.48;101120.22;5032055;28;20488;-79
2023/05/25 08:54:49;;;;;;;5.70;4.53;;;;;;;22.27;75.23;101127.66;5032966;28;20049;-79
2023/05/25 08:57:59;;;;;;;5.03;3.80;;;;;;;22.51;74.07;101125.22;5029072;28;20049;-79
2023/05/25 09:00:34;;;;;;;7.10;4.30;;;;;;;22.55;73.25;101143.72;5032017;28;20056;-80
2023/05/25 09:03:16;;;;;;;4.47;4.07;;;;;;;22.41;74.72;101129.31;5031021;28;20476;-80
2023/05/25 09:05:46;;;;;;;4.22;3.83;;;;;;;22.33;74.94;101136.59;5032476;28;20052;-80
2023/05/25 09:08:15;;;;;;;7.20;4.43;;;;;;;22.40;75.70;101136.03;5047991;28;20142;-80
2023/05/25 09:10:44;;;;;;;7.82;4.10;;;;;;;22.51;74.36;101141.97;5032698;28;20400;-80
2023/05/25 09:13:12;;;;;;;6.05;4.60;;;;;;;22.43;73.41;101140.91;5032443;28;20045;-80
2023/05/25 09:15:49;;;;;;;5.85;4.30;;;;;;;22.74;73.63;101149.88;5032794;28;20046;-80
2023/05/25 09:18:17;;;;;;;4.38;3.95;;;;;;;22.75;75.57;101157.09;5033072;28;20492;-80
2023/05/25 09:20:45;;;;;;;3.72;3.40;;;;;;;22.70;72.92;101155.34;5032810;28;20037;-80
2023/05/25 09:23:14;;;;;;;5.85;4.22;;;;;;;22.89;72.05;101157.56;5032769;28;20046;-79
2023/05/25 09:25:45;;;;;;;4.68;4.10;;;;;;;22.96;73.46;101156.94;5032437;28;20045;-80
2023/05/25 09:28:13;;;;;;;4.70;4.03;;;;;;;23.26;71.25;101148.28;5032596;28;20053;-77
2023/05/25 09:30:53;;;;;;;4.95;3.80;;;;;;;23.44;70.96;101164.78;5032227;28;20045;-77
2023/05/25 09:33:21;;;;;;;4.90;3.85;;;;;;;23.66;69.88;101159.81;5032100;28;20048;-77
2023/05/25 09:35:50;;;;;;;6.18;4.55;;;;;;;23.77;67.37;101144.16;5032374;28;20050;-77
2023/05/25 09:38:19;;;;;;;4.20;3.38;;;;;;;23.82;66.98;101157.03;5032330;28;20060;-76
2023/05/25 09:40:47;;;;;;;3.33;3.13;;;;;;;23.87;67.96;101160.41;5031613;28;20060;-77
2023/05/25 09:43:15;;;;;;;2.88;2.67;;;;;;;23.89;64.24;101157.22;5052032;28;20048;-77
2023/05/25 09:46:03;;;;;;;4.65;3.13;;;;;;;24.18;64.60;101162.81;5052604;28;20387;-77
2023/05/25 09:48:31;;;;;;;3.88;2.20;;;;;;;24.22;61.89;101164.53;5052340;28;20507;-77
2023/05/25 09:51:00;;;;;;;3.22;2.47;;;;;;;24.27;59.42;101160.66;5033445;28;20056;-78
2023/05/25 09:53:28;;;;;;;2.45;2.22;;;;;;;24.23;59.24;101165.31;5051585;28;20040;-80
2023/05/25 09:55:56;;;;;;;2.45;2.20;;;;;;;24.10;59.58;101167.41;5051865;28;20388;-80
2023/05/25 09:58:25;;;;;;;2.65;2.45;;;;;;;24.31;59.97;101166.31;5051589;28;20048;-80
2023/05/25 10:00:54;;;;;;;2.17;1.98;;;;;;;24.26;57.28;101161.81;5051583;28;20091;-80
2023/05/25 10:03:22;;;;;;;2.60;2.40;;;;;;;24.48;58.67;101165.97;5051730;28;20045;-80
2023/05/25 10:05:52;;;;;;;2.17;2.00;;;;;;;24.42;57.56;101147.81;5051714;28;20491;-79
2023/05/25 10:08:22;;;;;;;2.50;2.30;;;;;;;24.36;57.54;101169.69;5051625;28;20049;-80
2023/05/25 10:10:50;;;;;;;1.92;1.83;;;;;;;24.21;58.13;101167.69;5033775;28;20479;-79
2023/05/25 10:13:24;;;;;;;2.95;2.13;;;;;;;24.46;57.18;101168.31;5051507;28;20049;-79
2023/05/25 10:15:53;;;;;;;2.20;1.92;;;;;;;24.55;59.71;101165.34;5051822;28;20049;-80
2023/05/25 10:18:28;;;;;;;2.08;1.92;;;;;;;24.50;60.11;101160.84;5051530;28;20128;-80
2023/05/25 10:21:01;;;;;;;1.98;1.77;;;;;;;24.63;56.25;101164.31;5051737;28;20159;-80
2023/05/25 10:23:40;;;;;;;1.90;1.67;;;;;;;24.76;57.03;101161.41;5050487;28;20060;-80
2023/05/25 10:26:23;;;;;;;1.98;1.88;;;;;;;24.78;56.03;101150.69;5032519;28;20045;-80
2023/05/25 10:28:55;;;;;;;3.38;1.83;;;;;;;24.85;55.63;101144.47;5044074;28;20048;-80
2023/05/25 10:31:26;;;;;;;2.55;1.50;;;;;;;24.92;54.04;101151.03;5050532;28;20060;-80
2023/05/25 10:33:56;;;;;;;1.90;1.63;;;;;;;25.04;53.99;101157.69;5049236;28;20036;-80
2023/05/25 10:36:25;;;;;;;3.13;1.73;;;;;;;24.89;52.15;101148.16;5051162;28;20762;-80
2023/05/25 10:38:54;;;;;;;2.28;1.88;;;;;;;25.13;54.00;101163.91;5050533;28;20045;-80
2023/05/25 10:41:22;;;;;;;3.97;1.90;;;;;;;25.12;53.51;101153.84;5050336;28;20561;-81
2023/05/25 10:43:52;;;;;;;1.70;1.60;;;;;;;25.17;52.64;101144.38;5034228;28;20647;-77
2023/05/25 10:46:20;;;;;;;1.60;1.50;;;;;;;25.10;55.17;101145.03;5051166;28;20045;-78
2023/05/25 10:48:50;;;;;;;2.03;1.85;;;;;;;25.34;54.32;101149.53;5050520;28;20060;-78
2023/05/25 10:51:19;;;;;;;1.98;1.67;;;;;;;25.28;50.69;101147.38;5053853;28;20041;-78
2023/05/25 10:53:58;;;;;;;1.80;1.40;;;;;;;25.43;53.88;101148.50;5055697;28;20072;-78
2023/05/25 10:56:26;;;;;;;1.98;1.80;;;;;;;25.30;51.21;101148.66;5055246;28;20049;-78
2023/05/25 10:58:55;;;;;;;1.92;1.58;;;;;;;25.24;53.27;101144.53;5054930;28;20045;-78
2023/05/25 11:01:24;;;;;;;1.65;1.55;;;;;;;25.25;52.06;101148.13;5054890;28;20384;-77
2023/05/25 11:03:54;;;;;;;2.03;1.88;;;;;;;25.50;52.54;101146.66;5053745;28;20080;-80
2023/05/25 11:06:43;;;;;;;1.30;1.10;;;;;;;25.33;51.33;101135.91;5054375;28;20053;-80
2023/05/25 11:09:25;;;;;;;1.80;1.50;;;;;;;25.56;51.34;101143.59;5037098;28;20049;-79
2023/05/25 11:12:00;;;;;;;1.55;1.42;;;;;;;25.68;52.29;101139.81;5054680;28;20049;-80
2023/05/25 11:14:30;;;;;;;2.53;1.20;;;;;;;25.52;48.10;101125.88;5054739;28;20049;-80
2023/05/25 11:17:06;;;;;;;3.15;1.50;;;;;;;25.77;49.89;101140.38;5054516;28;20048;-80
2023/05/25 11:19:55;;;;;;;2.42;1.08;;;;;;;25.70;45.87;101143.06;5054768;28;20052;-82
2023/05/25 11:22:30;;;;;;;1.42;1.15;;;;;;;25.92;46.05;101129.44;5055457;28;20049;-80
2023/05/25 11:24:59;;;;;;;1.25;1.10;;;;;;;26.11;45.76;101132.19;5055008;28;20044;-80
2023/05/25 11:27:29;;;;;;;1.15;1.05;;;;;;;26.33;47.33;101123.34;5036779;28;20049;-80
2023/05/25 11:29:58;;;;;;;1.88;1.10;;;;;;;26.30;46.38;101117.28;5054772;28;20037;-80
2023/05/25 11:32:27;;;;;;;1.88;1.30;;;;;;;26.27;45.44;101112.44;5055283;28;20060;-77
2023/05/25 11:34:56;;;;;;;1.20;1.10;;;;;;;26.58;47.34;101122.94;5055059;28;20045;-78
2023/05/25 11:37:30;;;;;;;1.67;1.00;;;;;;;26.45;45.68;101114.72;5053249;28;20041;-78
2023/05/25 11:39:58;;;;;;;1.48;1.38;;;;;;;26.51;46.32;101116.03;5036846;28;20044;-78